createdAt,value
2023-01-02T00:00:31.371Z,99.16
2023-01-02T00:01:31.355Z,98.65
2023-01-02T00:02:31.433Z,98.65
2023-01-02T00:03:31.400Z,98.40
2023-01-02T00:04:31.213Z,98.30
2023-01-02T00:05:31.193Z,98.40
2023-01-02T00:06:31.178Z,98.30
2023-01-02T00:07:31.190Z,98.40
2023-01-02T00:08:31.191Z,98.40
2023-01-02T00:09:31.292Z,98.45
2023-01-02T00:10:31.243Z,98.55
2023-01-02T00:11:31.120Z,98.24
2023-01-02T00:12:31.134Z,98.35
2023-01-02T00:13:31.125Z,98.35
2023-01-02T00:14:31.072Z,98.35
2023-01-02T00:15:31.063Z,98.55
2023-01-02T00:16:31.119Z,97.74
2023-01-02T00:17:31.067Z,98.24
2023-01-02T00:18:31.033Z,97.74
2023-01-02T00:19:31.112Z,96.92
2023-01-02T00:20:31.004Z,96.97
2023-01-02T00:21:30.995Z,96.97
2023-01-02T00:22:31.006Z,96.87
2023-01-02T00:23:30.962Z,96.26
2023-01-02T00:24:30.944Z,96.36
2023-01-02T00:25:30.930Z,96.36
2023-01-02T00:26:30.922Z,96.26
2023-01-02T00:27:30.932Z,96.26
2023-01-02T00:28:30.898Z,95.95
2023-01-02T00:29:30.883Z,95.64
2023-01-02T00:30:37.657Z,95.13
2023-01-02T00:31:31.944Z,95.54
2023-01-02T00:32:30.921Z,95.85
2023-01-02T00:33:30.940Z,95.95
2023-01-02T00:34:30.810Z,95.85
2023-01-02T00:35:30.924Z,95.75
2023-01-02T00:36:30.798Z,95.95
2023-01-02T00:37:31.007Z,96.05
2023-01-02T00:38:30.941Z,96.05
2023-01-02T00:39:30.743Z,96.05
2023-01-02T00:40:30.741Z,95.44
2023-01-02T00:41:30.719Z,95.44
2023-01-02T00:42:30.732Z,95.85
2023-01-02T00:43:30.690Z,95.95
2023-01-02T00:44:30.683Z,96.15
2023-01-02T00:45:30.665Z,95.54
2023-01-02T00:46:30.670Z,95.23
2023-01-02T00:47:30.665Z,94.73
2023-01-02T00:48:30.661Z,94.68
2023-01-02T00:49:30.618Z,94.89
2023-01-02T00:50:30.612Z,94.89
2023-01-02T00:51:30.599Z,94.68
2023-01-02T00:52:30.579Z,94.68
2023-01-02T00:53:30.589Z,95.19
2023-01-02T00:54:30.553Z,94.89
2023-01-02T00:55:30.595Z,94.89
2023-01-02T00:56:30.526Z,94.68
2023-01-02T00:57:30.507Z,94.89
2023-01-02T00:58:30.526Z,95.29
2023-01-02T00:59:30.479Z,95.34
2023-01-02T01:00:30.692Z,94.37
2023-01-02T01:01:30.640Z,94.58
2023-01-02T01:02:30.510Z,94.68
2023-01-02T01:03:30.663Z,94.37
2023-01-02T01:04:30.419Z,94.68
2023-01-02T01:05:30.467Z,94.27
2023-01-02T01:06:30.622Z,94.17
2023-01-02T01:07:30.422Z,94.37
2023-01-02T01:08:30.406Z,94.27
2023-01-02T01:09:30.365Z,93.86
2023-01-02T01:10:30.338Z,94.07
2023-01-02T01:11:30.321Z,94.27
2023-01-02T01:12:30.320Z,93.96
2023-01-02T01:13:30.327Z,93.45
2023-01-02T01:14:30.288Z,93.66
2023-01-02T01:15:30.269Z,93.25
2023-01-02T01:16:30.309Z,93.10
2023-01-02T01:17:30.239Z,93.35
2023-01-02T01:18:30.270Z,92.80
2023-01-02T01:19:30.287Z,93.00
2023-01-02T01:20:30.211Z,92.29
2023-01-02T01:21:30.197Z,92.80
2023-01-02T01:22:30.192Z,93.10
2023-01-02T01:23:30.189Z,93.21
2023-01-02T01:24:30.148Z,93.41
2023-01-02T01:25:30.138Z,93.00
2023-01-02T01:26:30.128Z,92.49
2023-01-02T01:27:30.118Z,92.69
2023-01-02T01:28:30.132Z,92.80
2023-01-02T01:29:30.108Z,92.29
2023-01-02T01:30:30.081Z,92.90
2023-01-02T01:31:30.078Z,93.10
2023-01-02T01:32:30.049Z,93.51
2023-01-02T01:33:30.066Z,93.10
2023-01-02T01:34:30.034Z,92.84
2023-01-02T01:35:30.007Z,92.49
2023-01-02T01:36:30.009Z,92.69
2023-01-02T01:37:30.397Z,91.98
2023-01-02T01:38:30.013Z,92.39
2023-01-02T01:39:29.964Z,92.08
2023-01-02T01:40:29.953Z,91.57
2023-01-02T01:41:29.931Z,92.19
2023-01-02T01:42:29.919Z,92.08
2023-01-02T01:43:29.927Z,91.78
2023-01-02T01:44:29.903Z,92.19
2023-01-02T01:45:29.926Z,91.67
2023-01-02T01:46:29.872Z,91.67
2023-01-02T01:47:29.855Z,91.37
2023-01-02T01:48:29.889Z,91.88
2023-01-02T01:49:29.831Z,91.98
2023-01-02T01:50:29.816Z,91.67
2023-01-02T01:51:29.804Z,92.29
2023-01-02T01:52:29.795Z,91.88
2023-01-02T01:53:29.798Z,91.88
2023-01-02T01:54:29.767Z,92.29
2023-01-02T01:55:29.753Z,91.67
2023-01-02T01:56:29.737Z,91.67
2023-01-02T01:57:29.717Z,91.88
2023-01-02T01:58:29.755Z,91.98
2023-01-02T01:59:29.701Z,91.57
2023-01-02T02:00:29.691Z,91.22
2023-01-02T02:01:29.883Z,91.43
2023-01-02T02:02:29.800Z,91.43
2023-01-02T02:03:29.666Z,91.83
2023-01-02T02:04:29.627Z,91.43
2023-01-02T02:05:29.617Z,92.24
2023-01-02T02:06:29.615Z,91.43
2023-01-02T02:07:29.613Z,91.74
2023-01-02T02:08:29.619Z,91.67
2023-01-02T02:09:29.567Z,91.78
2023-01-02T02:10:29.560Z,91.88
2023-01-02T02:11:29.537Z,91.78
2023-01-02T02:12:29.539Z,91.67
2023-01-02T02:13:29.537Z,92.49
2023-01-02T02:14:29.512Z,92.29
2023-01-02T02:15:29.488Z,92.29
2023-01-02T02:16:29.529Z,92.49
2023-01-02T02:17:29.456Z,92.39
2023-01-02T02:18:29.479Z,92.29
2023-01-02T02:19:29.441Z,92.59
2023-01-02T02:20:29.438Z,92.39
2023-01-02T02:21:29.408Z,92.29
2023-01-02T02:22:29.397Z,90.86
2023-01-02T02:23:29.410Z,91.16
2023-01-02T02:24:29.377Z,91.78
2023-01-02T02:25:29.346Z,90.81
2023-01-02T02:26:29.345Z,90.92
2023-01-02T02:27:29.330Z,90.92
2023-01-02T02:28:29.350Z,91.22
2023-01-02T02:29:29.296Z,91.12
2023-01-02T02:30:29.300Z,90.61
2023-01-02T02:31:29.303Z,91.02
2023-01-02T02:32:29.277Z,90.71
2023-01-02T02:33:29.278Z,91.02
2023-01-02T02:34:29.259Z,91.02
2023-01-02T02:35:29.248Z,90.10
2023-01-02T02:36:29.226Z,90.20
2023-01-02T02:37:29.209Z,90.61
2023-01-02T02:38:29.219Z,90.00
2023-01-02T02:39:29.483Z,90.41
2023-01-02T02:40:29.156Z,90.00
2023-01-02T02:41:29.147Z,89.39
2023-01-02T02:42:29.126Z,89.39
2023-01-02T02:43:29.147Z,89.49
2023-01-02T02:44:29.104Z,89.49
2023-01-02T02:45:29.166Z,89.39
2023-01-02T02:46:29.076Z,89.28
2023-01-02T02:47:29.075Z,88.53
2023-01-02T02:48:29.078Z,89.14
2023-01-02T02:49:29.046Z,89.75
2023-01-02T02:50:29.027Z,88.73
2023-01-02T02:51:29.018Z,88.73
2023-01-02T02:52:29.066Z,89.04
2023-01-02T02:53:29.016Z,88.53
2023-01-02T02:54:28.978Z,88.43
2023-01-02T02:55:29.018Z,88.84
2023-01-02T02:56:28.952Z,89.45
2023-01-02T02:57:28.942Z,88.22
2023-01-02T02:58:28.947Z,88.73
2023-01-02T02:59:28.916Z,88.22
2023-01-02T03:00:28.900Z,88.53
2023-01-02T03:01:30.912Z,88.43
2023-01-02T03:02:28.996Z,88.22
2023-01-02T03:03:28.937Z,88.12
2023-01-02T03:04:28.857Z,87.82
2023-01-02T03:05:28.846Z,88.63
2023-01-02T03:06:28.818Z,88.12
2023-01-02T03:07:28.819Z,88.02
2023-01-02T03:08:33.052Z,88.12
2023-01-02T03:09:28.786Z,88.73
2023-01-02T03:10:28.769Z,87.82
2023-01-02T03:11:28.757Z,88.02
2023-01-02T03:12:28.736Z,88.02
2023-01-02T03:13:28.765Z,87.82
2023-01-02T03:14:28.715Z,87.92
2023-01-02T03:15:28.707Z,88.32
2023-01-02T03:16:28.683Z,88.32
2023-01-02T03:17:28.685Z,88.53
2023-01-02T03:18:28.662Z,88.63
2023-01-02T03:19:28.685Z,88.32
2023-01-02T03:20:28.641Z,88.63
2023-01-02T03:21:31.407Z,88.43
2023-01-02T03:22:28.618Z,88.43
2023-01-02T03:23:28.596Z,88.53
2023-01-02T03:24:28.613Z,88.84
2023-01-02T03:25:28.573Z,88.53
2023-01-02T03:26:28.555Z,88.93
2023-01-02T03:27:28.547Z,89.08
2023-01-02T03:28:28.536Z,89.08
2023-01-02T03:29:28.556Z,89.39
2023-01-02T03:30:28.585Z,89.49
2023-01-02T03:31:28.494Z,89.18
2023-01-02T03:32:28.479Z,89.28
2023-01-02T03:33:28.466Z,89.49
2023-01-02T03:34:28.485Z,88.67
2023-01-02T03:35:28.471Z,89.18
2023-01-02T03:36:28.425Z,88.47
2023-01-02T03:37:28.421Z,88.26
2023-01-02T03:38:28.414Z,88.32
2023-01-02T03:39:28.419Z,88.63
2023-01-02T03:40:28.380Z,88.84
2023-01-02T03:41:28.380Z,88.37
2023-01-02T03:42:28.361Z,88.47
2023-01-02T03:43:28.336Z,88.17
2023-01-02T03:44:28.355Z,88.43
2023-01-02T03:45:28.316Z,88.17
2023-01-02T03:46:28.324Z,88.57
2023-01-02T03:47:28.290Z,87.96
2023-01-02T03:48:28.266Z,88.67
2023-01-02T03:49:28.294Z,88.78
2023-01-02T03:50:28.236Z,88.98
2023-01-02T03:51:28.244Z,89.18
2023-01-02T03:52:28.221Z,89.08
2023-01-02T03:53:28.214Z,89.28
2023-01-02T03:54:28.232Z,89.53
2023-01-02T03:55:28.183Z,89.63
2023-01-02T03:56:28.182Z,89.39
2023-01-02T03:57:28.157Z,89.12
2023-01-02T03:58:28.140Z,89.02
2023-01-02T03:59:28.170Z,88.57
2023-01-02T04:00:28.116Z,89.08
2023-01-02T04:01:28.154Z,88.37
2023-01-02T04:02:28.362Z,89.08
2023-01-02T04:03:28.117Z,87.85
2023-01-02T04:04:28.090Z,88.57
2023-01-02T04:05:28.055Z,88.78
2023-01-02T04:06:28.043Z,88.37
2023-01-02T04:07:28.038Z,88.37
2023-01-02T04:08:28.013Z,88.37
2023-01-02T04:09:28.036Z,88.37
2023-01-02T04:10:27.984Z,88.47
2023-01-02T04:11:27.977Z,87.65
2023-01-02T04:12:27.958Z,88.06
2023-01-02T04:13:27.947Z,88.06
2023-01-02T04:14:27.964Z,87.30
2023-01-02T04:15:28.080Z,87.51
2023-01-02T04:16:27.912Z,87.51
2023-01-02T04:17:27.895Z,87.41
2023-01-02T04:18:27.876Z,87.30
2023-01-02T04:19:27.898Z,87.30
2023-01-02T04:20:27.866Z,87.30
2023-01-02T04:21:27.846Z,87.61
2023-01-02T04:22:27.826Z,87.51
2023-01-02T04:23:27.826Z,87.30
2023-01-02T04:24:27.836Z,87.41
2023-01-02T04:25:27.794Z,87.41
2023-01-02T04:26:27.775Z,87.10
2023-01-02T04:27:27.770Z,87.41
2023-01-02T04:28:27.747Z,87.71
2023-01-02T04:29:27.767Z,86.80
2023-01-02T04:30:27.716Z,87.30
2023-01-02T04:31:27.833Z,86.59
2023-01-02T04:32:27.706Z,87.20
2023-01-02T04:33:27.689Z,87.10
2023-01-02T04:34:27.694Z,87.20
2023-01-02T04:35:27.675Z,87.10
2023-01-02T04:36:27.636Z,86.59
2023-01-02T04:37:27.638Z,86.80
2023-01-02T04:38:27.619Z,87.10
2023-01-02T04:39:27.689Z,86.94
2023-01-02T04:40:27.591Z,87.04
2023-01-02T04:41:27.587Z,87.65
2023-01-02T04:42:27.564Z,87.45
2023-01-02T04:43:27.557Z,87.55
2023-01-02T04:44:27.570Z,87.76
2023-01-02T04:45:27.533Z,87.76
2023-01-02T04:46:27.569Z,87.85
2023-01-02T04:47:27.507Z,87.65
2023-01-02T04:48:27.486Z,87.85
2023-01-02T04:49:27.518Z,87.76
2023-01-02T04:50:27.463Z,87.76
2023-01-02T04:51:27.465Z,87.85
2023-01-02T04:52:30.722Z,87.90
2023-01-02T04:53:28.426Z,87.76
2023-01-02T04:54:27.437Z,87.35
2023-01-02T04:55:27.396Z,87.55
2023-01-02T04:56:27.464Z,87.35
2023-01-02T04:57:27.377Z,87.76
2023-01-02T04:58:27.356Z,87.45
2023-01-02T04:59:27.374Z,87.55
2023-01-02T05:00:27.335Z,87.76
2023-01-02T05:01:27.435Z,87.85
2023-01-02T05:02:27.553Z,88.31
2023-01-02T05:03:27.351Z,87.96
2023-01-02T05:04:27.321Z,88.10
2023-01-02T05:05:27.265Z,88.31
2023-01-02T05:06:27.263Z,88.00
2023-01-02T05:07:27.237Z,88.82
2023-01-02T05:08:27.235Z,88.61
2023-01-02T05:09:27.248Z,88.71
2023-01-02T05:10:27.208Z,88.71
2023-01-02T05:11:27.185Z,88.92
2023-01-02T05:12:27.185Z,89.12
2023-01-02T05:13:27.166Z,88.92
2023-01-02T05:14:27.183Z,88.92
2023-01-02T05:15:27.136Z,88.82
2023-01-02T05:16:27.175Z,88.61
2023-01-02T05:17:27.105Z,88.51
2023-01-02T05:18:27.102Z,88.61
2023-01-02T05:19:27.109Z,88.31
2023-01-02T05:20:27.074Z,88.10
2023-01-02T05:21:27.077Z,88.20
2023-01-02T05:22:27.052Z,88.31
2023-01-02T05:23:27.191Z,87.65
2023-01-02T05:24:27.417Z,87.35
2023-01-02T05:25:27.002Z,87.76
2023-01-02T05:26:27.007Z,87.45
2023-01-02T05:27:27.244Z,87.45
2023-01-02T05:28:26.972Z,87.85
2023-01-02T05:29:26.978Z,87.76
2023-01-02T05:30:26.951Z,87.55
2023-01-02T05:31:26.965Z,87.96
2023-01-02T05:32:26.996Z,87.24
2023-01-02T05:33:26.921Z,87.96
2023-01-02T05:34:27.001Z,87.96
2023-01-02T05:35:32.101Z,87.65
2023-01-02T05:36:27.862Z,87.76
2023-01-02T05:37:26.943Z,87.85
2023-01-02T05:38:26.975Z,88.47
2023-01-02T05:39:27.086Z,88.67
2023-01-02T05:40:26.897Z,88.26
2023-01-02T05:41:26.816Z,88.47
2023-01-02T05:42:26.884Z,88.67
2023-01-02T05:43:26.766Z,89.12
2023-01-02T05:44:26.798Z,89.39
2023-01-02T05:45:26.751Z,90.25
2023-01-02T05:46:26.760Z,90.35
2023-01-02T05:47:26.724Z,90.45
2023-01-02T05:48:26.706Z,91.16
2023-01-02T05:49:26.724Z,90.45
2023-01-02T05:50:26.684Z,89.53
2023-01-02T05:51:26.664Z,90.35
2023-01-02T05:52:26.665Z,90.96
2023-01-02T05:53:26.635Z,89.84
2023-01-02T05:54:26.662Z,90.75
2023-01-02T05:55:26.614Z,90.66
2023-01-02T05:56:26.607Z,90.04
2023-01-02T05:57:26.589Z,90.86
2023-01-02T05:58:26.585Z,90.86
2023-01-02T05:59:26.602Z,91.37
2023-01-02T06:00:26.549Z,92.39
2023-01-02T06:01:26.589Z,91.47
2023-01-02T06:02:26.615Z,92.49
2023-01-02T06:03:26.597Z,92.69
2023-01-02T06:04:26.539Z,93.05
2023-01-02T06:05:26.482Z,93.05
2023-01-02T06:06:26.474Z,93.35
2023-01-02T06:07:26.473Z,92.74
2023-01-02T06:08:26.450Z,92.94
2023-01-02T06:09:26.467Z,93.55
2023-01-02T06:10:26.430Z,93.35
2023-01-02T06:11:26.405Z,93.76
2023-01-02T06:12:26.394Z,94.17
2023-01-02T06:13:26.374Z,93.86
2023-01-02T06:14:26.407Z,93.96
2023-01-02T06:15:26.352Z,94.89
2023-01-02T06:16:26.415Z,94.89
2023-01-02T06:17:26.412Z,95.19
2023-01-02T06:18:26.314Z,93.96
2023-01-02T06:19:26.334Z,94.89
2023-01-02T06:20:26.294Z,94.78
2023-01-02T06:21:26.276Z,95.29
2023-01-02T06:22:26.265Z,94.98
2023-01-02T06:23:26.247Z,92.49
2023-01-02T06:24:26.265Z,92.49
2023-01-02T06:25:26.223Z,91.98
2023-01-02T06:26:31.192Z,91.53
2023-01-02T06:27:27.194Z,91.83
2023-01-02T06:28:26.191Z,91.83
2023-01-02T06:29:26.193Z,90.67
2023-01-02T06:30:26.163Z,90.88
2023-01-02T06:31:26.183Z,90.57
2023-01-02T06:32:26.135Z,90.36
2023-01-02T06:33:26.115Z,91.39
2023-01-02T06:34:27.073Z,91.49
2023-01-02T06:35:26.098Z,90.57
2023-01-02T06:36:26.085Z,91.08
2023-01-02T06:37:26.068Z,90.88
2023-01-02T06:38:26.065Z,91.28
2023-01-02T06:39:26.074Z,91.28
2023-01-02T06:40:26.027Z,89.75
2023-01-02T06:41:26.021Z,90.42
2023-01-02T06:42:26.350Z,90.53
2023-01-02T06:43:26.007Z,90.32
2023-01-02T06:44:25.973Z,89.40
2023-01-02T06:45:26.018Z,88.75
2023-01-02T06:46:25.957Z,88.24
2023-01-02T06:47:25.935Z,88.24
2023-01-02T06:48:25.935Z,88.24
2023-01-02T06:49:25.917Z,87.69
2023-01-02T06:50:32.848Z,87.79
2023-01-02T06:51:26.890Z,86.77
2023-01-02T06:52:25.875Z,86.68
2023-01-02T06:53:25.854Z,86.57
2023-01-02T06:54:25.844Z,86.98
2023-01-02T06:55:25.859Z,86.98
2023-01-02T06:56:25.836Z,87.69
2023-01-02T06:57:25.804Z,86.77
2023-01-02T06:58:25.805Z,86.57
2023-01-02T06:59:25.788Z,87.29
2023-01-02T07:00:25.799Z,86.77
2023-01-02T07:01:25.802Z,86.37
2023-01-02T07:02:25.856Z,86.57
2023-01-02T07:03:25.732Z,86.68
2023-01-02T07:04:25.664Z,86.22
2023-01-02T07:05:25.754Z,85.86
2023-01-02T07:06:25.644Z,86.02
2023-01-02T07:07:25.686Z,86.74
2023-01-02T07:08:25.611Z,86.33
2023-01-02T07:09:25.598Z,85.61
2023-01-02T07:10:25.625Z,85.31
2023-01-02T07:11:25.584Z,85.21
2023-01-02T07:12:25.573Z,85.82
2023-01-02T07:13:26.503Z,85.31
2023-01-02T07:14:25.539Z,86.53
2023-01-02T07:15:25.542Z,86.22
2023-01-02T07:16:25.542Z,85.51
2023-01-02T07:17:25.492Z,86.43
2023-01-02T07:18:25.484Z,86.13
2023-01-02T07:19:25.491Z,85.61
2023-01-02T07:20:25.564Z,85.92
2023-01-02T07:21:25.435Z,86.33
2023-01-02T07:22:25.433Z,85.21
2023-01-02T07:23:25.415Z,86.02
2023-01-02T07:24:25.491Z,86.02
2023-01-02T07:25:25.415Z,86.13
2023-01-02T07:26:25.393Z,85.82
2023-01-02T07:27:25.379Z,85.72
2023-01-02T07:28:25.353Z,85.51
2023-01-02T07:29:25.343Z,85.72
2023-01-02T07:30:25.368Z,84.19
2023-01-02T07:31:25.333Z,83.89
2023-01-02T07:32:27.557Z,83.78
2023-01-02T07:33:25.283Z,84.66
2023-01-02T07:34:25.275Z,84.45
2023-01-02T07:35:25.283Z,85.37
2023-01-02T07:36:25.243Z,85.88
2023-01-02T07:37:26.177Z,84.50
2023-01-02T07:38:25.235Z,85.00
2023-01-02T07:39:25.213Z,85.72
2023-01-02T07:40:31.818Z,85.92
2023-01-02T07:41:26.174Z,86.06
2023-01-02T07:42:25.173Z,86.27
2023-01-02T07:43:25.149Z,85.45
2023-01-02T07:44:25.160Z,83.98
2023-01-02T07:45:25.152Z,83.58
2023-01-02T07:46:25.163Z,83.48
2023-01-02T07:47:25.107Z,83.44
2023-01-02T07:48:25.093Z,83.37
2023-01-02T07:49:25.074Z,83.44
2023-01-02T07:50:25.091Z,83.17
2023-01-02T07:51:27.706Z,83.07
2023-01-02T07:52:25.041Z,83.48
2023-01-02T07:53:25.026Z,81.91
2023-01-02T07:54:25.012Z,82.42
2023-01-02T07:55:25.022Z,82.93
2023-01-02T07:56:24.990Z,82.82
2023-01-02T07:57:24.962Z,82.21
2023-01-02T07:58:24.978Z,82.76
2023-01-02T07:59:24.946Z,82.15
2023-01-02T08:00:24.966Z,83.27
2023-01-02T08:01:25.111Z,83.17
2023-01-02T08:02:25.019Z,82.76
2023-01-02T08:03:24.887Z,82.66
2023-01-02T08:04:24.952Z,82.87
2023-01-02T08:05:24.900Z,83.37
2023-01-02T08:06:24.897Z,82.76
2023-01-02T08:07:24.832Z,83.37
2023-01-02T08:08:24.823Z,83.37
2023-01-02T08:09:24.828Z,82.97
2023-01-02T08:10:24.855Z,83.17
2023-01-02T08:11:24.795Z,83.48
2023-01-02T08:12:24.779Z,83.07
2023-01-02T08:13:24.774Z,82.35
2023-01-02T08:14:24.773Z,82.26
2023-01-02T08:15:24.764Z,81.74
2023-01-02T08:16:24.789Z,81.91
2023-01-02T08:17:24.763Z,82.01
2023-01-02T08:18:24.705Z,81.71
2023-01-02T08:19:24.692Z,81.40
2023-01-02T08:20:24.705Z,81.71
2023-01-02T08:21:24.665Z,81.71
2023-01-02T08:22:24.645Z,81.40
2023-01-02T08:23:24.643Z,81.10
2023-01-02T08:24:24.660Z,81.20
2023-01-02T08:25:24.633Z,81.30
2023-01-02T08:26:24.596Z,81.71
2023-01-02T08:27:24.581Z,81.30
2023-01-02T08:28:24.573Z,81.71
2023-01-02T08:29:24.560Z,81.20
2023-01-02T08:30:24.571Z,81.81
2023-01-02T08:31:24.591Z,82.12
2023-01-02T08:32:24.590Z,81.30
2023-01-02T08:33:24.511Z,81.71
2023-01-02T08:34:24.494Z,81.71
2023-01-02T08:35:37.341Z,81.51
2023-01-02T08:36:25.501Z,82.52
2023-01-02T08:37:24.442Z,81.60
2023-01-02T08:38:24.461Z,82.12
2023-01-02T08:39:24.425Z,81.91
2023-01-02T08:40:24.443Z,81.40
2023-01-02T08:41:24.393Z,81.20
2023-01-02T08:42:24.405Z,80.99
2023-01-02T08:43:24.373Z,81.20
2023-01-02T08:44:24.353Z,81.51
2023-01-02T08:45:24.382Z,81.10
2023-01-02T08:46:24.425Z,81.60
2023-01-02T08:47:24.311Z,80.99
2023-01-02T08:48:24.319Z,81.20
2023-01-02T08:49:24.363Z,81.10
2023-01-02T08:50:24.310Z,80.69
2023-01-02T08:51:24.263Z,81.20
2023-01-02T08:52:24.262Z,81.10
2023-01-02T08:53:24.242Z,80.79
2023-01-02T08:54:24.236Z,80.49
2023-01-02T08:55:24.250Z,80.90
2023-01-02T08:56:24.216Z,81.20
2023-01-02T08:57:24.184Z,81.10
2023-01-02T08:58:24.187Z,80.99
2023-01-02T08:59:24.152Z,81.30
2023-01-02T09:00:24.193Z,81.10
2023-01-02T09:01:24.323Z,80.90
2023-01-02T09:02:24.289Z,80.69
2023-01-02T09:03:24.235Z,81.06
2023-01-02T09:04:24.102Z,80.96
2023-01-02T09:05:24.102Z,81.26
2023-01-02T09:06:24.082Z,80.04
2023-01-02T09:07:24.066Z,80.65
2023-01-02T09:08:24.041Z,80.35
2023-01-02T09:09:24.034Z,80.04
2023-01-02T09:10:24.048Z,80.41
2023-01-02T09:11:24.038Z,80.31
2023-01-02T09:12:24.569Z,80.21
2023-01-02T09:13:23.980Z,80.31
2023-01-02T09:14:23.998Z,79.19
2023-01-02T09:15:23.982Z,79.80
2023-01-02T09:16:24.037Z,79.60
2023-01-02T09:17:23.935Z,79.50
2023-01-02T09:18:29.224Z,79.50
2023-01-02T09:19:24.902Z,79.29
2023-01-02T09:20:24.013Z,78.78
2023-01-02T09:21:23.883Z,78.99
2023-01-02T09:22:23.853Z,78.58
2023-01-02T09:23:23.915Z,78.48
2023-01-02T09:24:23.833Z,78.58
2023-01-02T09:25:24.632Z,78.99
2023-01-02T09:26:23.847Z,79.29
2023-01-02T09:27:23.812Z,80.11
2023-01-02T09:28:23.842Z,79.50
2023-01-02T09:29:24.365Z,79.29
2023-01-02T09:30:23.755Z,78.68
2023-01-02T09:31:23.834Z,78.99
2023-01-02T09:32:23.731Z,79.39
2023-01-02T09:33:23.723Z,78.78
2023-01-02T09:34:23.705Z,78.99
2023-01-02T09:35:23.695Z,79.80
2023-01-02T09:36:23.717Z,79.94
2023-01-02T09:37:23.733Z,79.13
2023-01-02T09:38:23.652Z,79.23
2023-01-02T09:39:27.094Z,79.63
2023-01-02T09:40:24.677Z,79.33
2023-01-02T09:41:23.695Z,79.53
2023-01-02T09:42:23.641Z,79.53
2023-01-02T09:43:23.597Z,79.13
2023-01-02T09:44:23.588Z,80.24
2023-01-02T09:45:23.593Z,79.63
2023-01-02T09:46:23.668Z,79.84
2023-01-02T09:47:23.532Z,79.84
2023-01-02T09:48:24.102Z,80.45
2023-01-02T09:49:23.630Z,79.23
2023-01-02T09:50:23.570Z,79.63
2023-01-02T09:51:23.522Z,80.24
2023-01-02T09:52:23.484Z,79.23
2023-01-02T09:53:23.513Z,79.13
2023-01-02T09:54:23.486Z,79.53
2023-01-02T09:55:23.438Z,79.84
2023-01-02T09:56:27.564Z,79.84
2023-01-02T09:57:24.427Z,79.02
2023-01-02T09:58:23.402Z,79.94
2023-01-02T09:59:23.391Z,79.33
2023-01-02T10:00:23.494Z,78.92
2023-01-02T10:01:23.433Z,79.13
2023-01-02T10:02:23.458Z,79.53
2023-01-02T10:03:23.533Z,80.55
2023-01-02T10:04:23.347Z,81.26
2023-01-02T10:05:23.315Z,83.13
2023-01-02T10:06:23.510Z,85.06
2023-01-02T10:07:23.282Z,86.57
2023-01-02T10:08:29.661Z,88.51
2023-01-02T10:09:24.431Z,89.57
2023-01-02T10:10:23.365Z,90.73
2023-01-02T10:11:23.261Z,91.55
2023-01-02T10:12:23.212Z,92.61
2023-01-02T10:13:32.633Z,92.91
2023-01-02T10:14:31.446Z,94.55
2023-01-02T10:15:24.172Z,94.79
2023-01-02T10:16:23.193Z,94.79
2023-01-02T10:17:23.172Z,96.12
2023-01-02T10:18:23.790Z,95.76
2023-01-02T10:19:23.133Z,95.96
2023-01-02T10:20:24.357Z,96.88
2023-01-02T10:21:23.194Z,97.39
2023-01-02T10:22:23.081Z,97.60
2023-01-02T10:23:23.071Z,97.64
2023-01-02T10:24:23.052Z,97.85
2023-01-02T10:25:23.068Z,98.46
2023-01-02T10:26:23.062Z,98.86
2023-01-02T10:27:23.062Z,98.86
2023-01-02T10:28:23.034Z,99.48
2023-01-02T10:29:23.012Z,99.84
2023-01-02T10:30:23.032Z,99.99
2023-01-02T10:31:23.022Z,99.99
2023-01-02T10:32:22.962Z,99.99
2023-01-02T10:33:23.432Z,99.63
2023-01-02T10:34:23.143Z,99.99
2023-01-02T10:35:23.717Z,99.99
2023-01-02T10:36:22.935Z,99.99
2023-01-02T10:37:22.891Z,99.99
2023-01-02T10:38:22.872Z,99.99
2023-01-02T10:39:22.863Z,99.99
2023-01-02T10:40:22.943Z,99.99
2023-01-02T10:41:22.871Z,99.99
2023-01-02T10:42:22.876Z,99.99
2023-01-02T10:43:22.820Z,99.99
2023-01-02T10:44:22.798Z,99.99
2023-01-02T10:45:22.893Z,99.99
2023-01-02T10:46:23.032Z,99.99
2023-01-02T10:47:22.871Z,99.99
2023-01-02T10:48:22.859Z,99.99
2023-01-02T10:49:22.736Z,99.99
2023-01-02T10:50:23.572Z,99.99
2023-01-02T10:51:22.729Z,99.32
2023-01-02T10:52:22.727Z,99.99
2023-01-02T10:53:22.716Z,99.99
2023-01-02T10:54:22.664Z,99.99
2023-01-02T10:55:22.801Z,99.99
2023-01-02T10:56:22.671Z,99.99
2023-01-02T10:57:22.634Z,99.48
2023-01-02T10:58:22.651Z,98.97
2023-01-02T10:59:22.601Z,99.02
2023-01-02T11:00:27.725Z,98.36
2023-01-02T11:01:23.728Z,98.66
2023-01-02T11:02:22.614Z,99.07
2023-01-02T11:03:22.563Z,98.66
2023-01-02T11:04:23.296Z,98.46
2023-01-02T11:05:22.529Z,98.66
2023-01-02T11:06:35.080Z,99.27
2023-01-02T11:07:23.498Z,98.25
2023-01-02T11:08:22.579Z,98.36
2023-01-02T11:09:23.193Z,98.05
2023-01-02T11:10:22.456Z,97.64
2023-01-02T11:11:22.470Z,97.85
2023-01-02T11:12:27.060Z,96.72
2023-01-02T11:13:23.430Z,97.54
2023-01-02T11:14:22.407Z,98.15
2023-01-02T11:15:22.425Z,98.25
2023-01-02T11:16:22.537Z,98.36
2023-01-02T11:17:22.371Z,98.36
2023-01-02T11:18:22.352Z,97.13
2023-01-02T11:19:29.221Z,97.74
2023-01-02T11:20:23.335Z,96.77
2023-01-02T11:21:22.351Z,97.49
2023-01-02T11:22:22.311Z,97.08
2023-01-02T11:23:22.302Z,96.77
2023-01-02T11:24:22.285Z,96.56
2023-01-02T11:25:22.276Z,96.56
2023-01-02T11:26:22.436Z,97.38
2023-01-02T11:27:22.270Z,96.77
2023-01-02T11:28:22.254Z,96.77
2023-01-02T11:29:22.213Z,96.20
2023-01-02T11:30:22.191Z,97.02
2023-01-02T11:31:22.232Z,97.74
2023-01-02T11:32:22.202Z,97.12
2023-01-02T11:33:22.161Z,97.63
2023-01-02T11:34:22.142Z,97.83
2023-01-02T11:35:22.134Z,98.24
2023-01-02T11:36:22.192Z,97.94
2023-01-02T11:37:22.134Z,98.14
2023-01-02T11:38:29.710Z,98.65
2023-01-02T11:39:23.069Z,98.14
2023-01-02T11:40:22.062Z,98.04
2023-01-02T11:41:22.064Z,99.01
2023-01-02T11:42:22.080Z,99.21
2023-01-02T11:43:22.037Z,98.60
2023-01-02T11:44:22.093Z,98.60
2023-01-02T11:45:22.008Z,99.01
2023-01-02T11:46:22.017Z,99.01
2023-01-02T11:47:22.016Z,99.01
2023-01-02T11:48:22.069Z,99.21
2023-01-02T11:49:25.856Z,98.90
2023-01-02T11:50:22.637Z,99.01
2023-01-02T11:51:25.725Z,99.62
2023-01-02T11:52:22.313Z,99.99
2023-01-02T11:53:22.524Z,99.82
2023-01-02T11:54:25.157Z,99.99
2023-01-02T11:55:21.976Z,99.99
2023-01-02T11:56:25.215Z,99.99
2023-01-02T11:57:21.901Z,99.99
2023-01-02T11:58:22.023Z,99.99
2023-01-02T11:59:21.918Z,99.99
2023-01-02T12:00:21.812Z,99.99
2023-01-02T12:01:21.840Z,99.99
2023-01-02T12:02:22.268Z,99.99
2023-01-02T12:03:22.012Z,99.99
2023-01-02T12:04:21.782Z,99.99
2023-01-02T12:05:21.740Z,99.99
2023-01-02T12:06:21.731Z,99.99
2023-01-02T12:07:21.755Z,99.99
2023-01-02T12:08:21.772Z,99.99
2023-01-02T12:09:22.602Z,99.99
2023-01-02T12:10:21.793Z,99.99
2023-01-02T12:11:21.673Z,99.99
2023-01-02T12:12:21.732Z,99.99
2023-01-02T12:13:21.644Z,99.99
2023-01-02T12:14:21.663Z,99.99
2023-01-02T12:15:21.778Z,99.99
2023-01-02T12:16:21.652Z,99.99
2023-01-02T12:17:21.712Z,99.99
2023-01-02T12:18:21.739Z,99.99
2023-01-02T12:19:21.557Z,99.99
2023-01-02T12:20:21.542Z,99.99
2023-01-02T12:21:21.544Z,99.99
2023-01-02T12:22:21.545Z,99.99
2023-01-02T12:23:21.535Z,99.99
2023-01-02T12:24:21.668Z,99.99
2023-01-02T12:25:21.481Z,99.99
2023-01-02T12:26:22.080Z,99.99
2023-01-02T12:27:21.489Z,99.99
2023-01-02T12:28:21.446Z,99.99
2023-01-02T12:29:46.566Z,99.99
2023-01-02T12:30:22.422Z,99.99
2023-01-02T12:31:21.428Z,99.99
2023-01-02T12:32:21.473Z,99.99
2023-01-02T12:33:21.377Z,99.99
2023-01-02T12:34:21.419Z,99.99
2023-01-02T12:35:21.371Z,99.99
2023-01-02T12:36:21.333Z,99.99
2023-01-02T12:37:21.357Z,99.99
2023-01-02T12:38:23.365Z,99.99
2023-01-02T12:39:21.293Z,99.71
2023-01-02T12:40:21.285Z,99.45
2023-01-02T12:41:21.285Z,98.79
2023-01-02T12:42:21.408Z,99.25
2023-01-02T12:43:21.257Z,99.25
2023-01-02T12:44:21.237Z,99.04
2023-01-02T12:45:21.218Z,99.15
2023-01-02T12:46:21.243Z,98.53
2023-01-02T12:47:21.232Z,98.02
2023-01-02T12:48:21.169Z,98.33
2023-01-02T12:49:21.179Z,98.94
2023-01-02T12:50:21.148Z,98.22
2023-01-02T12:51:21.140Z,98.02
2023-01-02T12:52:21.162Z,98.53